Time;durP1;ratioP1;P1;durP2;ratioP2;P2;SDS_P1;SDS_P2;PMS_P1;PMS_P2;Temp;Humidity;BMP_temperature;BMP_pressure;BME280_temperature;BME280_humidity;BME280_pressure;Samples;Min_cycle;Max_cycle;Signal;HPM_P1;HPM_P2
2024/01/12 00:01:02;;;;;;;15.57;7.18;;;;;;;-0.64;79.30;100001.53;5034559;28;20175;-79
2024/01/12 00:03:27;;;;;;;11.65;5.93;;;;;;;-0.60;77.61;100010.75;5032918;28;20033;-79
2024/01/12 00:05:53;;;;;;;10.93;5.80;;;;;;;-0.79;80.19;100018.75;5051163;28;20081;-79
2024/01/12 00:08:18;;;;;;;10.82;5.85;;;;;;;-0.66;77.78;100019.19;5069884;28;20478;-78
2024/01/12 00:10:44;;;;;;;16.35;7.70;;;;;;;-0.65;76.65;99999.91;5066784;28;20032;-80
2024/01/12 00:13:09;;;;;;;14.50;6.60;;;;;;;-0.93;76.20;99963.28;5053041;28;20048;-79
2024/01/12 00:15:34;;;;;;;25.30;9.82;;;;;;;-0.65;75.47;99994.66;5069588;28;20028;-79
2024/01/12 00:18:00;;;;;;;21.88;8.15;;;;;;;-0.62;74.05;99987.31;5069275;28;20130;-79
2024/01/12 00:20:25;;;;;;;24.23;9.43;;;;;;;-0.67;76.22;100007.09;5069719;28;20485;-78
2024/01/12 00:22:51;;;;;;;26.02;10.15;;;;;;;-0.54;78.15;100033.72;5070221;28;20786;-78
2024/01/12 00:25:16;;;;;;;26.20;9.88;;;;;;;-0.78;76.45;100005.47;5089651;28;20035;-79
2024/01/12 00:27:41;;;;;;;15.65;7.30;;;;;;;-0.58;77.23;100024.53;5089304;28;20020;-79
2024/01/12 00:30:07;;;;;;;24.58;9.63;;;;;;;-0.75;79.12;100020.09;5090096;28;20031;-79
2024/01/12 00:32:35;;;;;;;19.05;8.32;;;;;;;-0.87;81.18;100017.66;5090099;28;20114;-78
2024/01/12 00:35:01;;;;;;;30.50;22.90;;;;;;;-0.88;81.05;100013.41;5089431;28;20035;-79
2024/01/12 00:37:26;;;;;;;19.92;14.38;;;;;;;-1.38;82.40;99992.00;5089865;28;20036;-79
2024/01/12 00:39:52;;;;;;;12.68;6.63;;;;;;;-1.19;83.52;100028.53;5051966;28;20611;-79
2024/01/12 00:42:17;;;;;;;12.70;7.47;;;;;;;-1.32;85.19;100013.19;5063589;28;20031;-78
2024/01/12 00:44:42;;;;;;;29.23;24.20;;;;;;;-1.12;84.95;100044.53;5089236;28;20536;-79
2024/01/12 00:47:08;;;;;;;66.03;51.45;;;;;;;-1.10;83.22;100034.72;5089251;28;20028;-78
2024/01/12 00:49:34;;;;;;;61.53;48.35;;;;;;;-1.25;83.66;99992.50;5072782;28;20029;-78
2024/01/12 00:51:59;;;;;;;64.65;51.65;;;;;;;-1.25;83.34;99988.09;5078733;28;20939;-79
2024/01/12 00:54:26;;;;;;;35.88;27.10;;;;;;;-1.26;84.60;100002.13;5072031;28;20446;-78
2024/01/12 00:56:53;;;;;;;54.53;35.55;;;;;;;-0.98;82.82;100020.50;5088933;28;20400;-79
2024/01/12 00:59:19;;;;;;;19.48;11.75;;;;;;;-1.28;84.19;100016.34;5070862;28;20488;-79
2024/01/12 01:01:45;;;;;;;35.30;24.85;;;;;;;-1.21;82.74;100025.25;5067448;28;20038;-80
2024/01/12 01:04:10;;;;;;;16.02;9.70;;;;;;;-1.16;83.50;100006.53;5068780;28;20024;-78
2024/01/12 01:06:36;;;;;;;26.10;16.27;;;;;;;-1.31;82.14;99996.53;5068643;28;20036;-79
2024/01/12 01:09:01;;;;;;;37.75;22.35;;;;;;;-1.42;82.88;100007.97;5069290;28;20032;-79
2024/01/12 01:11:27;;;;;;;35.63;21.48;;;;;;;-1.11;82.08;100022.59;5070947;28;20142;-78
2024/01/12 01:13:52;;;;;;;31.20;18.75;;;;;;;-1.32;81.29;99988.81;5088576;28;20054;-79
2024/01/12 01:16:18;;;;;;;26.40;16.27;;;;;;;-1.35;83.02;100013.44;5070553;28;20028;-80
2024/01/12 01:18:43;;;;;;;17.08;8.90;;;;;;;-1.26;80.59;100001.31;5064538;28;20032;-79
2024/01/12 01:21:09;;;;;;;16.38;9.02;;;;;;;-1.47;81.86;99989.28;5050728;28;20036;-79
2024/01/12 01:23:34;;;;;;;17.38;9.02;;;;;;;-1.17;81.49;100016.13;5088379;28;20504;-79
2024/01/12 01:26:00;;;;;;;13.18;9.18;;;;;;;-1.47;82.66;100004.13;5070610;28;20481;-78
2024/01/12 01:28:25;;;;;;;15.35;8.60;;;;;;;-1.28;81.54;100011.09;5067959;28;20028;-78
2024/01/12 01:30:51;;;;;;;14.88;7.95;;;;;;;-1.54;80.81;99995.22;5068151;28;20029;-78
2024/01/12 01:33:16;;;;;;;31.40;21.98;;;;;;;-1.61;80.89;100013.28;5071303;28;20091;-78
2024/01/12 01:35:42;;;;;;;22.30;14.52;;;;;;;-1.66;81.91;99997.16;5050871;28;20024;-78
2024/01/12 01:38:07;;;;;;;17.83;9.65;;;;;;;-1.58;80.64;99996.47;5068690;28;20029;-78
2024/01/12 01:40:32;;;;;;;14.50;7.63;;;;;;;-1.53;80.80;99979.38;5050441;28;20063;-78
2024/01/12 01:43:07;;;;;;;14.85;7.47;;;;;;;-1.54;80.96;99987.38;5079711;28;20042;-77
2024/01/12 01:45:35;;;;;;;15.82;8.07;;;;;;;-1.62;80.40;99970.59;5088831;28;20028;-77
2024/01/12 01:48:01;;;;;;;15.45;7.18;;;;;;;-1.40;80.30;99996.56;5070574;28;20071;-78
2024/01/12 01:50:26;;;;;;;16.27;8.75;;;;;;;-1.53;81.28;99979.38;5088316;28;20479;-77
2024/01/12 01:52:52;;;;;;;15.95;8.02;;;;;;;-1.55;80.54;99980.47;5087147;28;20024;-78
2024/01/12 01:55:18;;;;;;;14.35;7.70;;;;;;;-2.00;81.44;99934.94;5053489;28;20028;-77
2024/01/12 01:57:45;;;;;;;16.10;8.63;;;;;;;-1.52;80.59;99983.63;5050435;28;20036;-77
2024/01/12 02:00:11;;;;;;;17.90;9.00;;;;;;;-1.43;80.43;99979.34;5068319;28;20520;-77
2024/01/12 02:02:37;;;;;;;18.27;8.77;;;;;;;-1.56;80.12;99960.53;5055954;28;20044;-78
2024/01/12 02:05:06;;;;;;;18.38;9.32;;;;;;;-1.51;80.61;99961.75;5088189;28;20032;-78
2024/01/12 02:07:31;;;;;;;;;;;;;;;-1.59;81.45;99981.72;5089116;28;20073;-78
2024/01/12 02:09:58;;;;;;;13.93;7.90;;;;;;;-1.85;82.07;99979.75;5088540;28;19912;-78
2024/01/12 02:12:23;;;;;;;15.95;8.00;;;;;;;-2.04;83.30;99975.38;5086156;28;20043;-78
2024/01/12 02:14:49;;;;;;;13.65;7.75;;;;;;;-2.04;82.45;99942.22;5068362;28;20052;-78
2024/01/12 02:17:14;;;;;;;15.80;8.48;;;;;;;-1.91;83.48;99975.06;5068223;28;20095;-77
2024/01/12 02:19:40;;;;;;;15.05;8.13;;;;;;;-1.98;82.84;99960.91;5068915;28;20036;-79
2024/01/12 02:22:05;;;;;;;16.60;8.45;;;;;;;-1.94;82.30;99944.81;5052409;28;20036;-78
2024/01/12 02:24:30;;;;;;;14.52;7.93;;;;;;;-2.20;83.58;99939.38;5068220;28;20038;-78
2024/01/12 02:26:56;;;;;;;15.45;8.32;;;;;;;-1.98;83.19;99943.47;5071138;28;20546;-78
2024/01/12 02:29:22;;;;;;;15.18;7.78;;;;;;;-2.09;82.43;99941.81;5085778;28;20075;-78
2024/01/12 02:31:48;;;;;;;14.60;7.28;;;;;;;-1.84;80.93;99929.09;5075560;28;20028;-78
2024/01/12 02:34:14;;;;;;;15.18;7.82;;;;;;;-1.88;80.09;99938.19;5076395;28;20570;-78
2024/01/12 02:36:40;;;;;;;14.88;7.63;;;;;;;-1.70;79.87;99952.16;5099293;28;20060;-78
2024/01/12 02:39:05;;;;;;;15.27;8.25;;;;;;;-1.77;81.98;99945.88;5081703;28;20028;-78
2024/01/12 02:41:31;;;;;;;14.93;8.05;;;;;;;-1.71;78.53;99934.84;5084559;28;20040;-78
2024/01/12 02:43:56;;;;;;;13.68;7.43;;;;;;;-2.08;79.19;99922.56;5090953;28;20042;-78
2024/01/12 02:46:21;;;;;;;14.05;7.30;;;;;;;-1.85;78.47;99912.59;5082827;28;20040;-78
2024/01/12 02:48:47;;;;;;;14.27;7.28;;;;;;;-1.64;77.11;99961.25;5080574;28;20060;-77
2024/01/12 02:51:12;;;;;;;15.02;7.05;;;;;;;-1.94;77.38;99933.53;5080143;28;20028;-77
2024/01/12 02:53:38;;;;;;;15.23;6.88;;;;;;;-1.84;76.40;99944.78;5088951;28;20106;-78
2024/01/12 02:56:03;;;;;;;14.20;7.03;;;;;;;-1.94;75.58;99930.91;5099637;28;20484;-78
2024/01/12 02:58:29;;;;;;;17.50;8.23;;;;;;;-1.89;77.42;99926.09;5099451;28;20027;-78
2024/01/12 03:00:54;;;;;;;15.93;8.07;;;;;;;-2.07;76.97;99907.72;5081354;28;20485;-78
2024/01/12 03:03:20;;;;;;;14.38;7.18;;;;;;;-1.97;78.23;99910.31;5094082;28;20035;-78
2024/01/12 03:05:45;;;;;;;15.48;8.13;;;;;;;-1.70;76.96;99933.88;5057582;28;20040;-77
2024/01/12 03:08:11;;;;;;;16.17;7.70;;;;;;;-1.68;77.56;99937.16;5055848;28;20021;-78
2024/01/12 03:10:37;;;;;;;13.82;7.78;;;;;;;-1.70;76.39;99931.25;5082398;28;20049;-78
2024/01/12 03:13:03;;;;;;;13.65;7.30;;;;;;;-1.57;75.00;99925.72;5073123;28;20036;-78
2024/01/12 03:15:28;;;;;;;12.32;6.80;;;;;;;-1.56;75.47;99923.94;5053586;28;20040;-78
2024/01/12 03:17:56;;;;;;;15.23;7.40;;;;;;;-1.45;75.09;99936.81;5053334;28;20028;-78
2024/01/12 03:20:21;;;;;;;13.05;6.97;;;;;;;-1.65;76.35;99929.03;5059815;28;20488;-78
2024/01/12 03:22:47;;;;;;;13.45;7.40;;;;;;;-1.37;76.42;99931.66;5072992;28;20052;-78
2024/01/12 03:25:13;;;;;;;16.73;8.98;;;;;;;-1.45;76.99;99934.19;5055700;28;20138;-79
2024/01/12 03:27:38;;;;;;;13.60;7.72;;;;;;;-1.69;78.13;99926.88;5053331;28;20020;-78
2024/01/12 03:30:04;;;;;;;15.07;7.50;;;;;;;-1.64;77.27;99946.38;5070496;28;20047;-78
2024/01/12 03:32:30;;;;;;;16.55;8.00;;;;;;;-1.78;77.96;99912.84;5070863;28;20039;-79
2024/01/12 03:34:56;;;;;;;14.48;7.82;;;;;;;-1.74;78.76;99942.16;5054842;28;20433;-79
2024/01/12 03:37:22;;;;;;;15.00;7.85;;;;;;;-1.60;78.67;99953.94;5052710;28;20111;-79
2024/01/12 03:39:47;;;;;;;16.67;7.78;;;;;;;-1.72;77.96;99941.03;5052088;28;20508;-78
2024/01/12 03:42:13;;;;;;;18.20;8.60;;;;;;;-1.25;76.02;99946.25;5052302;28;20028;-78
2024/01/12 03:44:38;;;;;;;15.15;7.57;;;;;;;-1.45;76.58;99923.72;5054927;28;20036;-79
2024/01/12 03:47:03;;;;;;;14.93;7.50;;;;;;;-1.76;77.81;99913.53;5070580;28;20028;-78
2024/01/12 03:49:29;;;;;;;18.23;8.13;;;;;;;-1.82;77.32;99928.00;5052664;28;20392;-78
2024/01/12 03:51:55;;;;;;;18.77;8.55;;;;;;;-1.51;77.25;99955.69;5051629;28;20028;-78
2024/01/12 03:54:26;;;;;;;16.42;8.27;;;;;;;-1.86;79.06;99942.34;5072475;28;20072;-78
2024/01/12 03:56:52;;;;;;;18.98;10.98;;;;;;;-1.88;80.20;99936.41;5070025;28;20029;-78
2024/01/12 03:59:18;;;;;;;18.08;9.80;;;;;;;-1.87;81.05;99932.81;5052131;28;20390;-78
2024/01/12 04:01:44;;;;;;;18.17;9.82;;;;;;;-1.93;82.98;99971.78;5070068;28;20032;-78
2024/01/12 04:04:10;;;;;;;15.93;9.10;;;;;;;-1.99;81.46;99946.22;5054731;28;20151;-78
2024/01/12 04:06:36;;;;;;;15.40;8.88;;;;;;;-1.91;80.13;99954.16;5051806;28;20613;-78
2024/01/12 04:09:01;;;;;;;24.70;13.43;;;;;;;-1.57;78.89;99967.56;5069886;28;20524;-78
2024/01/12 04:11:27;;;;;;;21.95;12.23;;;;;;;-1.67;80.12;99959.75;5052248;28;20078;-78
2024/01/12 04:13:52;;;;;;;17.65;10.63;;;;;;;-1.78;79.30;99954.66;5055005;28;20389;-78
2024/01/12 04:16:19;;;;;;;20.88;11.60;;;;;;;-1.76;79.39;99978.88;5090352;28;20024;-78
2024/01/12 04:18:44;;;;;;;16.67;10.02;;;;;;;-1.90;79.30;99976.72;5089507;28;20419;-79
2024/01/12 04:21:10;;;;;;;18.88;10.35;;;;;;;-1.96;80.26;99992.94;5071702;28;20493;-79
2024/01/12 04:23:37;;;;;;;18.17;9.55;;;;;;;-2.24;82.05;99979.78;5089974;28;20035;-78
2024/01/12 04:26:02;;;;;;;39.70;19.20;;;;;;;-2.06;81.19;99978.13;5089351;28;20059;-78
2024/01/12 04:28:28;;;;;;;23.65;12.85;;;;;;;-1.99;79.91;99980.19;5090473;28;20408;-78
2024/01/12 04:30:53;;;;;;;26.42;14.45;;;;;;;-1.97;81.06;99967.81;5086824;28;20405;-78
2024/01/12 04:33:18;;;;;;;191.18;94.53;;;;;;;-1.89;80.29;99970.53;5052120;28;20078;-78
2024/01/12 04:35:44;;;;;;;90.85;48.20;;;;;;;-2.03;81.11;99962.16;5086261;28;20028;-77
2024/01/12 04:38:10;;;;;;;57.63;35.92;;;;;;;-1.91;81.32;99948.94;5071744;28;20029;-78
2024/01/12 04:40:36;;;;;;;29.42;16.08;;;;;;;-1.68;80.38;100001.72;5089421;28;20165;-78
2024/01/12 04:43:02;;;;;;;23.73;13.15;;;;;;;-1.85;81.33;99969.28;5069396;28;20112;-78
2024/01/12 04:45:28;;;;;;;21.58;11.60;;;;;;;-1.89;81.70;99983.59;5064021;28;20039;-79
2024/01/12 04:47:53;;;;;;;25.90;12.35;;;;;;;-1.95;83.00;99971.91;5089555;28;20032;-78
2024/01/12 04:50:19;;;;;;;21.88;12.80;;;;;;;-2.02;82.59;99971.66;5089545;28;20677;-78
2024/01/12 04:52:44;;;;;;;20.83;13.13;;;;;;;-1.67;83.96;100003.38;5054250;28;20036;-78
2024/01/12 04:55:09;;;;;;;21.05;11.38;;;;;;;-1.68;81.56;99991.25;5060572;28;20461;-78
2024/01/12 04:57:35;;;;;;;20.10;10.90;;;;;;;-1.58;82.11;100004.31;5088796;28;20028;-78
2024/01/12 05:00:00;;;;;;;18.92;10.48;;;;;;;-1.46;81.31;99990.09;5071353;28;20551;-79
2024/01/12 05:02:25;;;;;;;19.70;9.98;;;;;;;-1.52;79.31;99988.06;5089293;28;20028;-79
2024/01/12 05:04:51;;;;;;;20.58;10.55;;;;;;;-1.68;79.25;99979.00;5085056;28;20449;-79
2024/01/12 05:07:16;;;;;;;21.80;10.50;;;;;;;-1.53;77.63;99995.09;5051055;28;20032;-78
2024/01/12 05:09:42;;;;;;;20.85;10.52;;;;;;;-1.55;79.10;99990.94;5068212;28;20826;-77
2024/01/12 05:12:07;;;;;;;19.10;10.02;;;;;;;-1.50;76.45;99999.19;5068595;28;20033;-78
2024/01/12 05:14:33;;;;;;;17.08;9.27;;;;;;;-1.54;76.01;100001.25;5074364;28;20056;-77
2024/01/12 05:16:58;;;;;;;19.38;10.73;;;;;;;-1.51;75.95;99998.38;5061644;28;20062;-78
2024/01/12 05:19:23;;;;;;;17.23;9.23;;;;;;;-1.58;74.88;99988.63;5059797;28;20081;-78
2024/01/12 05:21:49;;;;;;;17.85;9.90;;;;;;;-1.55;76.78;100006.63;5080526;28;20031;-78
2024/01/12 05:24:16;;;;;;;14.32;8.55;;;;;;;-1.55;74.93;99988.31;5061136;28;20405;-78
2024/01/12 05:26:43;;;;;;;17.98;9.13;;;;;;;-1.28;73.23;100013.72;5079568;28;20020;-78
2024/01/12 05:29:08;;;;;;;17.85;8.00;;;;;;;-1.22;70.94;100029.66;5080218;28;20043;-78
2024/01/12 05:31:34;;;;;;;15.80;8.52;;;;;;;-1.29;73.99;100026.00;5077448;28;20394;-77
2024/01/12 05:34:00;;;;;;;18.35;8.13;;;;;;;-1.40;71.35;100009.63;5080296;28;20028;-78
2024/01/12 05:36:25;;;;;;;14.35;7.75;;;;;;;-1.51;70.00;99993.16;5064187;28;20028;-78
2024/01/12 05:38:51;;;;;;;14.43;7.43;;;;;;;-1.27;70.95;100021.44;5080110;28;20031;-78
2024/01/12 05:41:16;;;;;;;16.38;7.63;;;;;;;-1.34;69.49;100015.09;5077312;28;20377;-77
2024/01/12 05:43:42;;;;;;;15.88;7.25;;;;;;;-1.19;68.04;100022.50;5077843;28;20040;-78
2024/01/12 05:46:07;;;;;;;13.27;7.00;;;;;;;-1.20;67.85;100011.22;5063120;28;20036;-78
2024/01/12 05:48:33;;;;;;;14.07;7.00;;;;;;;-1.23;66.38;100001.88;5058307;28;20402;-78
2024/01/12 05:51:00;;;;;;;16.73;7.82;;;;;;;-1.42;69.30;100023.66;5050890;28;20070;-78
2024/01/12 05:53:25;;;;;;;14.65;7.95;;;;;;;-1.50;70.66;100020.13;5068731;28;20037;-77
2024/01/12 05:55:54;;;;;;;16.48;7.80;;;;;;;-1.54;71.21;100019.56;5070927;28;20103;-77
2024/01/12 05:58:19;;;;;;;14.75;8.02;;;;;;;-1.36;70.94;100031.94;5068487;28;20043;-77
2024/01/12 06:00:49;;;;;;;25.27;14.60;;;;;;;-1.84;71.66;100033.66;5050600;28;20036;-77
2024/01/12 06:03:14;;;;;;;23.15;14.25;;;;;;;-1.64;71.20;100042.31;5068266;28;20032;-78
2024/01/12 06:05:44;;;;;;;83.07;38.67;;;;;;;-1.65;71.40;100031.03;5056201;28;20042;-78
2024/01/12 06:08:09;;;;;;;23.15;12.57;;;;;;;-1.58;72.13;100059.22;5089189;28;20082;-78
2024/01/12 06:10:35;;;;;;;46.05;20.73;;;;;;;-1.59;73.57;100068.03;5089080;28;20045;-78
2024/01/12 06:13:00;;;;;;;61.65;27.63;;;;;;;-1.52;72.19;100045.59;5088244;28;20023;-78
2024/01/12 06:15:25;;;;;;;35.38;17.25;;;;;;;-1.55;73.21;100057.16;5071215;28;20085;-77
2024/01/12 06:17:51;;;;;;;311.10;97.50;;;;;;;-1.28;72.14;100079.13;5074019;28;20024;-77
2024/01/12 06:20:16;;;;;;;376.02;122.03;;;;;;;-1.58;73.98;100048.78;5092244;28;20024;-78
2024/01/12 06:22:41;;;;;;;209.68;62.53;;;;;;;-1.91;76.50;100074.41;5092356;28;20451;-77
2024/01/12 06:25:07;;;;;;;287.58;82.30;;;;;;;-1.77;77.19;100091.47;5073014;28;20487;-77
2024/01/12 06:27:33;;;;;;;280.67;85.10;;;;;;;-1.68;78.16;100107.13;5092031;28;20040;-78
2024/01/12 06:29:58;;;;;;;106.10;43.85;;;;;;;-1.92;79.03;100109.31;5091869;28;20066;-78
2024/01/12 06:32:23;;;;;;;130.52;54.13;;;;;;;-1.81;78.96;100080.44;5088892;28;20036;-77
2024/01/12 06:34:49;;;;;;;71.20;34.85;;;;;;;-1.50;78.20;100114.28;5053644;28;20024;-77
2024/01/12 06:37:14;;;;;;;94.95;41.38;;;;;;;-1.55;78.40;100090.31;5087241;28;20040;-78
2024/01/12 06:39:40;;;;;;;58.80;34.97;;;;;;;-1.23;77.37;100085.59;5091843;28;20457;-77
2024/01/12 06:42:05;;;;;;;116.13;87.55;;;;;;;-0.70;75.24;100112.13;5091888;28;20035;-77
2024/01/12 06:44:31;;;;;;;191.50;125.70;;;;;;;-0.85;76.57;100104.75;5078133;28;20075;-78
2024/01/12 06:46:56;;;;;;;104.75;73.22;;;;;;;-0.82;77.08;100099.22;5083481;28;20032;-78
2024/01/12 06:49:21;;;;;;;60.65;45.35;;;;;;;-0.76;77.26;100097.81;5080773;28;20013;-78
2024/01/12 06:51:47;;;;;;;48.15;34.22;;;;;;;-0.62;77.14;100117.47;5080758;28;20024;-78
2024/01/12 06:54:12;;;;;;;28.88;17.45;;;;;;;-0.42;75.39;100120.81;5081295;28;20071;-78
2024/01/12 06:56:38;;;;;;;19.67;13.30;;;;;;;-0.09;71.39;100116.75;5080925;28;20024;-78
2024/01/12 06:59:04;;;;;;;18.13;9.07;;;;;;;0.11;68.42;100132.34;5079639;28;20028;-77
2024/01/12 07:01:30;;;;;;;20.35;10.70;;;;;;;0.43;69.23;100146.72;5079951;28;20028;-78
2024/01/12 07:03:55;;;;;;;19.58;9.88;;;;;;;0.45;70.17;100144.75;5091527;28;20027;-77
2024/01/12 07:06:21;;;;;;;19.17;10.50;;;;;;;0.41;68.70;100125.91;5090168;28;20139;-78
2024/01/12 07:08:46;;;;;;;21.38;11.68;;;;;;;0.66;68.38;100147.91;5091484;28;20026;-77
2024/01/12 07:11:11;;;;;;;18.92;10.73;;;;;;;0.82;68.70;100162.09;5091316;28;20028;-77
2024/01/12 07:13:37;;;;;;;22.73;14.18;;;;;;;0.53;69.43;100171.06;5090803;28;20048;-76
2024/01/12 07:16:03;;;;;;;26.85;19.45;;;;;;;0.62;68.68;100161.50;5088824;28;20115;-77
2024/01/12 07:18:28;;;;;;;27.33;15.52;;;;;;;0.48;66.95;100126.09;5071136;28;20032;-76
2024/01/12 07:20:56;;;;;;;35.45;18.42;;;;;;;0.74;68.01;100160.28;5070969;28;20036;-77
2024/01/12 07:23:21;;;;;;;31.52;17.08;;;;;;;0.75;70.23;100183.72;5071082;28;20191;-77
2024/01/12 07:25:47;;;;;;;46.97;35.70;;;;;;;0.66;70.55;100179.41;5052850;28;20123;-77
2024/01/12 07:28:12;;;;;;;52.70;40.20;;;;;;;0.82;69.96;100190.97;5088469;28;20119;-76
2024/01/12 07:30:38;;;;;;;74.32;51.83;;;;;;;1.19;68.17;100191.59;5091363;28;20020;-77
2024/01/12 07:33:03;;;;;;;32.47;23.77;;;;;;;0.94;68.38;100187.13;5072735;28;20032;-77
2024/01/12 07:35:28;;;;;;;23.10;14.77;;;;;;;1.38;63.95;100219.44;5073348;28;20020;-76
2024/01/12 07:37:54;;;;;;;44.45;30.00;;;;;;;1.63;63.08;100214.31;5090111;28;20535;-77
2024/01/12 07:40:19;;;;;;;37.05;21.70;;;;;;;1.60;65.73;100189.19;5091437;28;20023;-75
2024/01/12 07:42:45;;;;;;;38.10;26.05;;;;;;;1.72;64.57;100208.13;5072420;28;20028;-77
2024/01/12 07:45:13;;;;;;;32.67;21.27;;;;;;;2.00;63.77;100211.38;5072402;28;20548;-76
2024/01/12 07:47:39;;;;;;;28.23;15.65;;;;;;;2.26;63.54;100199.09;5083351;28;20028;-77
2024/01/12 07:50:06;;;;;;;46.63;34.17;;;;;;;2.32;61.64;100196.63;5081309;28;20027;-77
2024/01/12 07:52:32;;;;;;;42.03;28.25;;;;;;;2.40;58.96;100188.75;5088649;28;20474;-77
2024/01/12 07:54:57;;;;;;;46.35;34.92;;;;;;;2.71;59.19;100205.72;5090121;28;20500;-77
2024/01/12 07:57:22;;;;;;;26.20;16.48;;;;;;;2.99;58.36;100217.56;5088513;28;20043;-79
2024/01/12 07:59:48;;;;;;;31.70;19.80;;;;;;;2.94;58.41;100205.88;5090494;28;20027;-78
2024/01/12 08:02:14;;;;;;;38.35;29.10;;;;;;;3.00;56.21;100207.84;5090454;28;20064;-77
2024/01/12 08:04:40;;;;;;;70.22;34.75;;;;;;;3.35;58.03;100227.75;5089470;28;20489;-78
2024/01/12 08:07:06;;;;;;;28.52;15.18;;;;;;;3.60;58.43;100225.88;5060645;28;20034;-77
2024/01/12 08:09:32;;;;;;;21.20;12.68;;;;;;;3.35;56.59;100208.44;5080713;28;20020;-76
2024/01/12 08:11:57;;;;;;;17.55;10.07;;;;;;;3.72;54.64;100228.13;5061901;28;20028;-77
2024/01/12 08:14:22;;;;;;;22.02;12.93;;;;;;;3.61;57.32;100230.13;5080887;28;20114;-76
2024/01/12 08:16:48;;;;;;;20.80;11.80;;;;;;;3.66;55.10;100236.72;5080680;28;20107;-76
2024/01/12 08:19:14;;;;;;;19.48;10.75;;;;;;;3.72;54.49;100259.78;5081424;28;20036;-76
2024/01/12 08:21:39;;;;;;;17.88;9.63;;;;;;;4.00;53.83;100245.19;5078757;28;20149;-76
2024/01/12 08:24:05;;;;;;;20.65;10.95;;;;;;;3.75;54.74;100257.63;5062737;28;20023;-75
2024/01/12 08:26:30;;;;;;;20.73;10.80;;;;;;;3.49;55.99;100254.41;5083798;28;20029;-76
2024/01/12 08:29:01;;;;;;;27.88;17.38;;;;;;;3.34;57.54;100270.91;5088966;28;20038;-76
2024/01/12 08:31:27;;;;;;;138.02;86.22;;;;;;;3.19;56.86;100260.22;5089701;28;20031;-76
2024/01/12 08:33:52;;;;;;;164.68;102.88;;;;;;;3.57;56.14;100283.41;5087267;28;20145;-77
2024/01/12 08:36:18;;;;;;;102.28;74.57;;;;;;;3.93;53.69;100282.97;5069204;28;20496;-76
2024/01/12 08:38:43;;;;;;;68.57;56.60;;;;;;;3.73;54.52;100274.63;5066082;28;20028;-76
2024/01/12 08:41:09;;;;;;;65.30;49.28;;;;;;;3.77;55.46;100281.22;5089716;28;20028;-76
2024/01/12 08:43:34;;;;;;;99.72;73.70;;;;;;;3.53;55.80;100267.06;5089316;28;20031;-77
2024/01/12 08:45:59;;;;;;;70.88;55.85;;;;;;;4.00;54.56;100294.50;5070523;28;20044;-76
2024/01/12 08:48:25;;;;;;;70.05;56.42;;;;;;;4.02;54.88;100293.34;5072951;28;21018;-76
2024/01/12 08:50:50;;;;;;;65.43;51.03;;;;;;;3.86;55.60;100271.44;5051393;28;20040;-76
2024/01/12 08:53:16;;;;;;;44.97;34.10;;;;;;;4.15;54.68;100286.69;5069180;28;20036;-76
2024/01/12 08:55:41;;;;;;;45.55;29.55;;;;;;;3.84;55.85;100279.53;5069080;28;20031;-76
2024/01/12 08:58:07;;;;;;;50.13;34.35;;;;;;;4.05;55.57;100270.25;5071565;28;20119;-76
2024/01/12 09:00:33;;;;;;;55.97;46.88;;;;;;;4.31;54.40;100302.47;5069176;28;20029;-76
2024/01/12 09:02:58;;;;;;;32.05;19.00;;;;;;;4.37;55.49;100270.09;5069204;28;20445;-76
2024/01/12 09:05:23;;;;;;;24.90;16.25;;;;;;;4.62;53.68;100275.22;5062924;28;20036;-76
2024/01/12 09:07:49;;;;;;;22.52;11.82;;;;;;;5.00;52.26;100296.44;5087997;28;20058;-76
2024/01/12 09:10:14;;;;;;;17.92;11.15;;;;;;;4.98;51.90;100299.25;5089362;28;20039;-75
2024/01/12 09:12:39;;;;;;;18.23;10.50;;;;;;;4.80;50.89;100307.47;5088035;28;20507;-76
2024/01/12 09:15:07;;;;;;;17.73;10.30;;;;;;;5.08;51.40;100312.22;5086426;28;20157;-76
2024/01/12 09:17:33;;;;;;;16.48;9.93;;;;;;;4.93;50.91;100303.44;5087072;28;20027;-76
2024/01/12 09:20:00;;;;;;;82.28;50.92;;;;;;;5.44;54.40;100293.09;5061565;28;20040;-76
2024/01/12 09:22:25;;;;;;;39.00;24.35;;;;;;;5.81;50.89;100325.81;5074996;28;20032;-77
2024/01/12 09:24:51;;;;;;;45.50;24.65;;;;;;;5.65;51.89;100337.38;5067172;28;20481;-75
2024/01/12 09:27:17;;;;;;;25.13;17.45;;;;;;;5.71;51.93;100319.97;5067689;28;20028;-75
2024/01/12 09:29:42;;;;;;;29.13;22.42;;;;;;;6.56;50.36;100338.03;5068816;28;20036;-74
2024/01/12 09:32:08;;;;;;;33.80;25.58;;;;;;;5.91;51.28;100310.47;5088941;28;20518;-76
2024/01/12 09:34:33;;;;;;;32.22;19.50;;;;;;;6.18;52.92;100334.72;5070622;28;20066;-76
2024/01/12 09:36:59;;;;;;;25.33;16.25;;;;;;;6.68;49.97;100311.88;5088852;28;20477;-75
2024/01/12 09:39:24;;;;;;;42.78;31.67;;;;;;;6.69;48.18;100334.72;5088164;28;20111;-76
2024/01/12 09:41:50;;;;;;;23.55;14.90;;;;;;;6.47;50.80;100319.78;5089020;28;20025;-76
2024/01/12 09:44:20;;;;;;;31.90;21.08;;;;;;;6.17;48.19;100318.00;5088606;28;20036;-76
2024/01/12 09:46:57;;;;;;;29.08;20.77;;;;;;;6.13;47.32;100313.22;5051732;28;20035;-75
2024/01/12 09:49:24;;;;;;;20.55;13.07;;;;;;;6.35;46.89;100317.59;5081190;28;20503;-76
2024/01/12 09:51:50;;;;;;;28.27;23.17;;;;;;;6.28;47.22;100337.09;5088411;28;20027;-76
2024/01/12 09:54:16;;;;;;;44.03;36.53;;;;;;;6.39;48.83;100324.16;5088356;28;20036;-76
2024/01/12 09:56:43;;;;;;;54.13;33.28;;;;;;;6.46;48.13;100331.38;5088139;28;20665;-76
2024/01/12 09:59:09;;;;;;;55.95;39.85;;;;;;;6.89;51.31;100336.78;5084354;28;20034;-76
2024/01/12 10:01:34;;;;;;;25.95;15.93;;;;;;;8.41;48.49;100338.94;5088601;28;20059;-76
2024/01/12 10:04:00;;;;;;;24.42;16.30;;;;;;;8.59;46.03;100346.38;5088646;28;20517;-76
2024/01/12 10:06:25;;;;;;;32.47;25.50;;;;;;;8.38;47.85;100339.31;5087991;28;20428;-75
2024/01/12 10:08:51;;;;;;;21.75;17.08;;;;;;;7.19;46.00;100314.44;5086233;28;20173;-76
2024/01/12 10:11:16;;;;;;;20.25;14.30;;;;;;;6.94;50.48;100321.13;5088190;28;20039;-77
2024/01/12 10:13:42;;;;;;;30.05;23.08;;;;;;;7.71;44.72;100317.69;5088172;28;20055;-76
2024/01/12 10:16:07;;;;;;;25.92;17.73;;;;;;;7.68;45.81;100333.97;5077389;28;20032;-76
2024/01/12 10:18:33;;;;;;;43.45;29.80;;;;;;;7.75;45.14;100334.88;5071336;28;20114;-76
2024/01/12 10:20:59;;;;;;;23.67;16.65;;;;;;;8.01;48.56;100323.59;5070000;28;20035;-76
2024/01/12 10:23:26;;;;;;;20.55;13.82;;;;;;;8.93;46.99;100341.97;5070043;28;20531;-76
2024/01/12 10:26:04;;;;;;;20.92;12.48;;;;;;;8.56;42.16;100341.44;5080593;28;20086;-76
2024/01/12 10:28:30;;;;;;;18.33;11.43;;;;;;;7.82;45.78;100340.22;5069755;28;20029;-76
2024/01/12 10:30:56;;;;;;;23.73;14.82;;;;;;;6.65;46.19;100346.69;5087854;28;20024;-76
2024/01/12 10:33:22;;;;;;;20.13;15.02;;;;;;;7.86;45.48;100344.13;5070158;28;20488;-76
2024/01/12 10:36:05;;;;;;;17.70;11.48;;;;;;;7.62;45.59;100319.69;5088013;28;20024;-76
2024/01/12 10:38:31;;;;;;;18.65;12.32;;;;;;;7.84;47.44;100332.88;5088053;28;20024;-75
2024/01/12 10:40:59;;;;;;;19.58;11.38;;;;;;;7.47;47.28;100342.00;5087664;28;20032;-75
2024/01/12 10:43:26;;;;;;;;;;;;;;;8.03;43.56;100352.63;5088724;28;20496;-75
2024/01/12 10:45:57;;;;;;;41.92;35.45;;;;;;;7.73;42.42;100338.75;5064678;28;19919;-76
2024/01/12 10:48:24;;;;;;;43.90;36.35;;;;;;;7.31;42.48;100337.78;5068286;28;20116;-76
2024/01/12 10:50:57;;;;;;;32.08;26.17;;;;;;;7.08;45.05;100341.44;5066092;28;20622;-76
2024/01/12 10:53:36;;;;;;;16.75;10.63;;;;;;;7.13;46.26;100352.31;5069987;28;20047;-75
2024/01/12 10:56:03;;;;;;;17.95;12.50;;;;;;;7.16;45.40;100336.00;5082153;28;20025;-76
2024/01/12 10:58:29;;;;;;;18.75;10.45;;;;;;;6.79;45.70;100329.13;5067948;28;20032;-77
2024/01/12 11:00:55;;;;;;;22.50;12.90;;;;;;;6.32;45.88;100343.66;5084300;28;20070;-76
2024/01/12 11:03:21;;;;;;;22.05;14.25;;;;;;;6.47;46.81;100335.69;5080829;28;20027;-76
2024/01/12 11:05:50;;;;;;;19.27;15.43;;;;;;;7.13;44.21;100331.09;5072262;28;20024;-76
2024/01/12 11:08:19;;;;;;;18.00;9.63;;;;;;;8.09;42.94;100345.69;5071164;28;20048;-76
2024/01/12 11:10:52;;;;;;;25.00;15.20;;;;;;;7.35;45.34;100339.03;5087874;28;20412;-76
2024/01/12 11:13:18;;;;;;;24.10;13.10;;;;;;;7.89;42.74;100351.72;5072984;28;20052;-76